Terminal Aerodrome Forecast
Issued by NWS Albany, NY

Home | Current Version | Previous Version | Text Only | Print | Product List | Glossary On
Versions: 1 2 3 4 5 6 7 8 9 10 11 12 13 14 15 16 17 18 19 20
191
FTUS41 KALY 052345
TAFGFL
TAF
KGFL 052345Z 0600/0624 32005KT P6SM SKC
     FM060500 00000KT P6SM SCT250
     FM061300 VRB03KT P6SM SCT100 BKN250
     FM061600 22008KT P6SM BKN050 BKN100=

USA.gov is the U.S. government's official web portal to all federal, state and local government web resources and services.